createdAt,value
2016-06-15T00:00:43.581Z,96.99
2016-06-15T00:01:43.616Z,97.18
2016-06-15T00:02:43.666Z,96.51
2016-06-15T00:03:43.716Z,96.99
2016-06-15T00:04:43.766Z,97.04
2016-06-15T00:05:43.784Z,96.51
2016-06-15T00:06:43.818Z,96.42
2016-06-15T00:07:43.853Z,96.51
2016-06-15T00:08:43.934Z,96.89
2016-06-15T00:09:43.952Z,96.13
2016-06-15T00:10:43.988Z,96.37
2016-06-15T00:11:44.037Z,96.22
2016-06-15T00:12:44.103Z,95.17
2016-06-15T00:13:44.105Z,95.36
2016-06-15T00:14:44.140Z,94.64
2016-06-15T00:15:44.206Z,94.98
2016-06-15T00:16:44.224Z,94.02
2016-06-15T00:17:44.274Z,94.5
2016-06-15T00:18:44.309Z,94.21
2016-06-15T00:19:44.218Z,93.35
2016-06-15T00:20:44.393Z,91.44
2016-06-15T00:21:44.444Z,91.25
2016-06-15T00:22:44.477Z,90.77
2016-06-15T00:23:44.512Z,91.44
2016-06-15T00:24:44.561Z,90.72
2016-06-15T00:25:44.596Z,90.62
2016-06-15T00:26:44.692Z,89.76
2016-06-15T00:27:44.680Z,90.09
2016-06-15T00:28:44.714Z,90.77
2016-06-15T00:29:44.749Z,90.48
2016-06-15T00:30:44.829Z,91
2016-06-15T00:31:44.849Z,91.29
2016-06-15T00:32:44.883Z,91.19
2016-06-15T00:33:44.948Z,90.77
2016-06-15T00:34:45.436Z,90.91
2016-06-15T00:35:45.001Z,89.95
2016-06-15T00:36:45.036Z,89.9
2016-06-15T00:37:45.117Z,89.09
2016-06-15T00:38:45.135Z,89.52
2016-06-15T00:39:45.170Z,88.85
2016-06-15T00:40:45.205Z,88.61
2016-06-15T00:41:45.254Z,89.62
2016-06-15T00:42:45.289Z,88.99
2016-06-15T00:43:45.339Z,88.99
2016-06-15T00:44:45.389Z,88.76
2016-06-15T00:45:45.407Z,89.28
2016-06-15T00:46:45.457Z,88.76
2016-06-15T00:47:45.491Z,89.43
2016-06-15T00:48:45.369Z,88.9
2016-06-15T00:49:45.466Z,89.18
2016-06-15T00:50:45.641Z,89.09
2016-06-15T00:51:45.645Z,89.62
2016-06-15T00:52:45.725Z,88.47
2016-06-15T00:53:45.729Z,88.61
2016-06-15T00:54:45.795Z,88.8
2016-06-15T00:55:45.829Z,88.95
2016-06-15T00:56:45.863Z,88.7
2016-06-15T00:57:45.897Z,89.14
2016-06-15T00:58:45.963Z,88.66
2016-06-15T00:59:46.080Z,88.66
2016-06-15T01:00:46.135Z,88.47
2016-06-15T01:01:46.206Z,88.47
2016-06-15T01:02:46.276Z,88.32
2016-06-15T01:03:46.344Z,87.84
2016-06-15T01:04:46.250Z,87.8
2016-06-15T01:05:46.454Z,88.09
2016-06-15T01:06:46.517Z,87.9
2016-06-15T01:07:46.548Z,87.74
2016-06-15T01:08:46.604Z,87.7
2016-06-15T01:09:46.644Z,87.51
2016-06-15T01:10:46.683Z,87.7
2016-06-15T01:11:46.739Z,87.99
2016-06-15T01:12:46.777Z,87.51
2016-06-15T01:13:46.814Z,87.61
2016-06-15T01:14:46.865Z,87.32
2016-06-15T01:15:46.901Z,86.69
2016-06-15T01:16:46.953Z,87.37
2016-06-15T01:17:46.988Z,87.41
2016-06-15T01:18:47.071Z,87.23
2016-06-15T01:19:47.090Z,87.41
2016-06-15T01:20:47.110Z,87.32
2016-06-15T01:21:47.161Z,87.9
2016-06-15T01:22:47.196Z,87.41
2016-06-15T01:23:47.246Z,87.51
2016-06-15T01:24:47.280Z,87.7
2016-06-15T01:25:47.377Z,87.51
2016-06-15T01:26:47.364Z,87.8
2016-06-15T01:27:47.399Z,87.61
2016-06-15T01:28:47.479Z,87.9
2016-06-15T01:29:47.515Z,87.99
2016-06-15T01:30:47.532Z,88.47
2016-06-15T01:31:47.568Z,87.99
2016-06-15T01:32:47.616Z,87.7
2016-06-15T01:33:47.699Z,87.9
2016-06-15T01:34:47.826Z,87.99
2016-06-15T01:35:47.580Z,87.8
2016-06-15T01:36:47.769Z,88.95
2016-06-15T01:37:47.804Z,88.47
2016-06-15T01:38:47.854Z,88.37
2016-06-15T01:39:47.888Z,88.56
2016-06-15T01:40:47.954Z,89.04
2016-06-15T01:41:47.973Z,88.76
2016-06-15T01:42:48.007Z,88.76
2016-06-15T01:43:48.041Z,88.47
2016-06-15T01:44:48.092Z,88.28
2016-06-15T01:45:48.141Z,88.66
2016-06-15T01:46:48.175Z,88.56
2016-06-15T01:47:48.225Z,88.85
2016-06-15T01:48:48.260Z,88.85
2016-06-15T01:49:48.294Z,87.7
2016-06-15T01:50:48.329Z,87.9
2016-06-15T01:51:48.379Z,88.37
2016-06-15T01:52:48.413Z,88.66
2016-06-15T01:53:48.447Z,88.95
2016-06-15T01:54:48.497Z,88.85
2016-06-15T01:55:48.547Z,88.95
2016-06-15T01:56:48.581Z,89.33
2016-06-15T01:57:48.615Z,88.56
2016-06-15T01:58:48.681Z,88.47
2016-06-15T01:59:48.700Z,88.37
2016-06-15T02:00:48.750Z,88.56
2016-06-15T02:01:48.785Z,89.33
2016-06-15T02:02:48.866Z,88.85
2016-06-15T02:03:48.884Z,87.99
2016-06-15T02:04:48.903Z,88.37
2016-06-15T02:05:48.953Z,88.76
2016-06-15T02:06:49.003Z,88.28
2016-06-15T02:07:49.021Z,88.56
2016-06-15T02:08:49.071Z,88.56
2016-06-15T02:09:49.121Z,88.47
2016-06-15T02:10:49.140Z,88.47
2016-06-15T02:11:49.191Z,89.43
2016-06-15T02:12:49.225Z,88.37
2016-06-15T02:13:49.290Z,88.37
2016-06-15T02:14:49.309Z,89.23
2016-06-15T02:15:49.343Z,89.04
2016-06-15T02:16:49.393Z,89.04
2016-06-15T02:17:49.459Z,89.33
2016-06-15T02:18:49.477Z,88.95
2016-06-15T02:19:49.511Z,89.33
2016-06-15T02:20:49.405Z,89.23
2016-06-15T02:21:49.596Z,89.72
2016-06-15T02:22:49.631Z,88.56
2016-06-15T02:23:49.680Z,88.66
2016-06-15T02:24:50.215Z,89.23
2016-06-15T02:25:49.748Z,89.86
2016-06-15T02:26:49.798Z,89.9
2016-06-15T02:27:49.864Z,89.81
2016-06-15T02:28:49.868Z,89.52
2016-06-15T02:29:49.916Z,88.7
2016-06-15T02:30:49.952Z,89.14
2016-06-15T02:31:50.001Z,88.76
2016-06-15T02:32:50.036Z,88.76
2016-06-15T02:33:50.070Z,88.28
2016-06-15T02:34:50.120Z,88.37
2016-06-15T02:35:50.201Z,89.14
2016-06-15T02:36:50.204Z,89.52
2016-06-15T02:37:50.238Z,88.95
2016-06-15T02:38:50.304Z,89.04
2016-06-15T02:39:50.338Z,88.85
2016-06-15T02:40:50.357Z,89.62
2016-06-15T02:41:50.408Z,89.72
2016-06-15T02:42:50.456Z,89.23
2016-06-15T02:43:50.492Z,89.62
2016-06-15T02:44:50.526Z,89.43
2016-06-15T02:45:50.560Z,89.43
2016-06-15T02:46:50.657Z,89.9
2016-06-15T02:47:50.644Z,90
2016-06-15T02:48:50.694Z,89.9
2016-06-15T02:49:50.728Z,90
2016-06-15T02:50:50.811Z,89.81
2016-06-15T02:51:50.813Z,90.09
2016-06-15T02:52:50.973Z,89.62
2016-06-15T02:53:50.897Z,89.81
2016-06-15T02:54:50.932Z,89.52
2016-06-15T02:55:50.966Z,89.9
2016-06-15T02:56:51.079Z,90.19
2016-06-15T02:57:51.096Z,90
2016-06-15T02:58:50.960Z,89.72
2016-06-15T02:59:51.133Z,90
2016-06-15T03:00:51.169Z,89.23
2016-06-15T03:01:51.265Z,90
2016-06-15T03:02:51.254Z,90.09
2016-06-15T03:03:51.287Z,89.72
2016-06-15T03:04:51.337Z,90.09
2016-06-15T03:05:52.387Z,90.39
2016-06-15T03:06:51.422Z,89.9
2016-06-15T03:07:51.456Z,90.29
2016-06-15T03:08:51.522Z,90.19
2016-06-15T03:09:51.540Z,89.62
2016-06-15T03:10:51.574Z,89.33
2016-06-15T03:11:51.625Z,89.81
2016-06-15T03:12:51.690Z,90.09
2016-06-15T03:13:51.693Z,89.81
2016-06-15T03:14:51.743Z,89.62
2016-06-15T03:15:51.793Z,89.9
2016-06-15T03:16:51.827Z,89.62
2016-06-15T03:17:51.862Z,90
2016-06-15T03:18:51.896Z,89.9
2016-06-15T03:19:51.961Z,89.81
2016-06-15T03:20:51.995Z,89.9
2016-06-15T03:21:52.014Z,90.09
2016-06-15T03:22:52.064Z,90.29
2016-06-15T03:23:52.099Z,90.29
2016-06-15T03:24:52.132Z,90
2016-06-15T03:25:52.183Z,89.52
2016-06-15T03:26:52.249Z,89.72
2016-06-15T03:27:52.267Z,90.09
2016-06-15T03:28:52.302Z,90.48
2016-06-15T03:29:52.351Z,90.29
2016-06-15T03:30:52.386Z,90.39
2016-06-15T03:31:52.436Z,90.29
2016-06-15T03:32:52.470Z,90.39
2016-06-15T03:33:52.504Z,90.09
2016-06-15T03:34:52.555Z,90.33
2016-06-15T03:35:52.588Z,90.48
2016-06-15T03:36:52.623Z,90.19
2016-06-15T03:37:52.720Z,90
2016-06-15T03:38:52.708Z,89.86
2016-06-15T03:39:52.742Z,89.72
2016-06-15T03:40:52.792Z,89.04
2016-06-15T03:41:52.842Z,88.66
2016-06-15T03:42:52.876Z,89.14
2016-06-15T03:43:52.926Z,88.85
2016-06-15T03:44:52.788Z,89.23
2016-06-15T03:45:52.995Z,89.23
2016-06-15T03:46:53.028Z,89.33
2016-06-15T03:47:53.079Z,88.76
2016-06-15T03:48:53.113Z,88.85
2016-06-15T03:49:53.163Z,88.99
2016-06-15T03:50:53.056Z,89.14
2016-06-15T03:51:53.279Z,88.76
2016-06-15T03:52:53.281Z,88.18
2016-06-15T03:53:53.316Z,88.56
2016-06-15T03:54:53.365Z,89.23
2016-06-15T03:55:53.400Z,88.85
2016-06-15T03:56:53.450Z,89.04
2016-06-15T03:57:53.484Z,88.37
2016-06-15T03:58:53.551Z,88.66
2016-06-15T03:59:53.553Z,88.56
2016-06-15T04:00:53.603Z,88.37
2016-06-15T04:01:53.685Z,88.61
2016-06-15T04:02:53.702Z,88.56
2016-06-15T04:03:53.722Z,88.76
2016-06-15T04:04:53.755Z,88.66
2016-06-15T04:05:53.650Z,89.28
2016-06-15T04:06:53.840Z,88.8
2016-06-15T04:07:53.890Z,88.56
2016-06-15T04:08:53.925Z,88.47
2016-06-15T04:09:54.006Z,88.28
2016-06-15T04:10:54.009Z,88.47
2016-06-15T04:11:54.043Z,88.37
2016-06-15T04:12:54.374Z,88.56
2016-06-15T04:13:54.127Z,88.56
2016-06-15T04:14:54.161Z,88.37
2016-06-15T04:15:54.212Z,88.56
2016-06-15T04:16:54.261Z,88.66
2016-06-15T04:17:54.390Z,88.56
2016-06-15T04:18:54.346Z,88.66
2016-06-15T04:19:54.380Z,88.85
2016-06-15T04:20:54.430Z,88.56
2016-06-15T04:21:54.449Z,88.76
2016-06-15T04:22:54.499Z,88.47
2016-06-15T04:23:54.627Z,88.66
2016-06-15T04:24:54.568Z,88.37
2016-06-15T04:25:54.617Z,88.28
2016-06-15T04:26:54.668Z,88.95
2016-06-15T04:27:55.483Z,89.33
2016-06-15T04:28:54.877Z,89.23
2016-06-15T04:29:54.786Z,89.14
2016-06-15T04:30:54.852Z,88.76
2016-06-15T04:31:55.121Z,88.56
2016-06-15T04:32:55.108Z,88.76
2016-06-15T04:33:54.939Z,88.76
2016-06-15T04:34:55.223Z,88.56
2016-06-15T04:35:55.117Z,89.04
2016-06-15T04:36:55.151Z,88.85
2016-06-15T04:37:55.373Z,88.61
2016-06-15T04:38:55.142Z,88.76
2016-06-15T04:39:55.191Z,88.47
2016-06-15T04:40:55.227Z,88.76
2016-06-15T04:41:55.119Z,88.7
2016-06-15T04:42:55.310Z,88.37
2016-06-15T04:43:55.344Z,88.7
2016-06-15T04:44:55.394Z,89.14
2016-06-15T04:45:55.428Z,89.23
2016-06-15T04:46:55.479Z,88.9
2016-06-15T04:47:55.512Z,88.51
2016-06-15T04:48:55.610Z,89.37
2016-06-15T04:49:55.597Z,87.94
2016-06-15T04:50:55.647Z,88.23
2016-06-15T04:51:55.682Z,88.13
2016-06-15T04:52:55.731Z,87.37
2016-06-15T04:53:55.750Z,87.37
2016-06-15T04:54:55.800Z,87.27
2016-06-15T04:55:55.865Z,87.46
2016-06-15T04:56:55.884Z,86.64
2016-06-15T04:57:55.919Z,87.02
2016-06-15T04:58:55.968Z,86.74
2016-06-15T04:59:56.050Z,85.97
2016-06-15T05:00:56.037Z,86.54
2016-06-15T05:01:56.306Z,86.25
2016-06-15T05:02:56.184Z,85.49
2016-06-15T05:03:56.172Z,85.58
2016-06-15T05:04:56.206Z,85.21
2016-06-15T05:05:56.756Z,85.21
2016-06-15T05:06:56.165Z,85.49
2016-06-15T05:07:56.324Z,84.63
2016-06-15T05:08:56.391Z,84.82
2016-06-15T05:09:56.408Z,85.11
2016-06-15T05:10:56.475Z,84.91
2016-06-15T05:11:56.493Z,85.25
2016-06-15T05:12:56.543Z,85.88
2016-06-15T05:13:56.578Z,85.44
2016-06-15T05:14:56.612Z,85.88
2016-06-15T05:15:56.662Z,85.97
2016-06-15T05:16:56.696Z,85.78
2016-06-15T05:17:56.793Z,85.58
2016-06-15T05:18:56.796Z,85.68
2016-06-15T05:19:56.831Z,85.39
2016-06-15T05:20:57.583Z,85.49
2016-06-15T05:21:56.915Z,85.68
2016-06-15T05:22:57.058Z,85.68
2016-06-15T05:23:56.984Z,85.21
2016-06-15T05:24:57.033Z,85.88
2016-06-15T05:25:57.068Z,85.88
2016-06-15T05:26:57.132Z,85.3
2016-06-15T05:27:57.152Z,85.88
2016-06-15T05:28:57.249Z,85.49
2016-06-15T05:29:58.049Z,85.39
2016-06-15T05:30:57.302Z,85.68
2016-06-15T05:31:57.320Z,85.49
2016-06-15T05:32:57.386Z,85.83
2016-06-15T05:33:57.404Z,86.35
2016-06-15T05:34:57.454Z,85.88
2016-06-15T05:35:57.911Z,85.39
2016-06-15T05:36:57.663Z,86.02
2016-06-15T05:37:57.557Z,85.74
2016-06-15T05:38:57.591Z,85.83
2016-06-15T05:39:57.641Z,85.16
2016-06-15T05:40:57.691Z,85.35
2016-06-15T05:41:57.726Z,85.74
2016-06-15T05:42:57.760Z,85.93
2016-06-15T05:43:57.684Z,85.35
2016-06-15T05:44:57.860Z,85.68
2016-06-15T05:45:57.894Z,85.21
2016-06-15T05:46:57.945Z,85.49
2016-06-15T05:47:58.025Z,85.21
2016-06-15T05:48:58.014Z,85.49
2016-06-15T05:49:58.047Z,85.11
2016-06-15T05:50:58.519Z,85.54
2016-06-15T05:51:58.131Z,85.11
2016-06-15T05:52:58.182Z,85.21
2016-06-15T05:53:58.215Z,85.39
2016-06-15T05:54:58.266Z,85.88
2016-06-15T05:55:58.346Z,85.58
2016-06-15T05:56:58.788Z,85.58
2016-06-15T05:57:58.494Z,85.39
2016-06-15T05:58:58.419Z,85.88
2016-06-15T05:59:58.500Z,85.88
2016-06-15T06:00:58.503Z,86.07
2016-06-15T06:01:58.537Z,85.68
2016-06-15T06:02:58.572Z,85.21
2016-06-15T06:03:58.668Z,85.3
2016-06-15T06:04:58.672Z,85.01
2016-06-15T06:05:58.830Z,84.63
2016-06-15T06:06:59.037Z,85.49
2016-06-15T06:07:58.791Z,85.39
2016-06-15T06:08:58.840Z,85.68
2016-06-15T06:09:58.874Z,85.21
2016-06-15T06:10:58.956Z,85.01
2016-06-15T06:11:58.974Z,85.78
2016-06-15T06:12:58.993Z,85.39
2016-06-15T06:13:59.153Z,85.49
2016-06-15T06:14:59.093Z,85.88
2016-06-15T06:15:59.597Z,85.78
2016-06-15T06:16:59.318Z,86.45
2016-06-15T06:17:59.884Z,86.35
2016-06-15T06:18:59.245Z,85.97
2016-06-15T06:19:59.281Z,86.64
2016-06-15T06:20:59.690Z,86.45
2016-06-15T06:22:00.474Z,86.35
2016-06-15T06:22:59.493Z,86.45
2016-06-15T06:23:59.840Z,87.12
2016-06-15T06:24:59.483Z,86.83
2016-06-15T06:26:00.111Z,87.21
2016-06-15T06:26:59.567Z,87.12
2016-06-15T06:27:59.742Z,87.5
2016-06-15T06:28:59.901Z,87.5
2016-06-15T06:29:59.734Z,87.79
2016-06-15T06:31:00.642Z,87.41
2016-06-15T06:31:59.911Z,87.79
2016-06-15T06:32:59.820Z,87.88
2016-06-15T06:33:59.964Z,87.88
2016-06-15T06:34:59.905Z,87.79
2016-06-15T06:36:00.908Z,87.98
2016-06-15T06:37:00.130Z,87.7
2016-06-15T06:38:00.038Z,87.88
2016-06-15T06:39:00.167Z,88.27
2016-06-15T06:40:00.092Z,87.98
2016-06-15T06:41:00.142Z,88.27
2016-06-15T06:42:00.176Z,87.98
2016-06-15T06:43:00.226Z,88.17
2016-06-15T06:44:00.276Z,87.7
2016-06-15T06:45:00.294Z,87.79
2016-06-15T06:46:00.423Z,87.6
2016-06-15T06:47:00.581Z,87.5
2016-06-15T06:48:00.445Z,87.7
2016-06-15T06:49:00.728Z,87.6
2016-06-15T06:50:00.732Z,87.5
2016-06-15T06:51:00.813Z,87.88
2016-06-15T06:52:00.801Z,87.79
2016-06-15T06:53:00.632Z,87.79
2016-06-15T06:54:00.869Z,88.65
2016-06-15T06:55:00.966Z,88.84
2016-06-15T06:56:00.876Z,88.46
2016-06-15T06:57:00.816Z,88.37
2016-06-15T06:58:00.835Z,88.17
2016-06-15T06:59:00.868Z,88.46
2016-06-15T07:00:00.919Z,88.65
2016-06-15T07:01:00.954Z,88.89
2016-06-15T07:02:01.003Z,88.37
2016-06-15T07:03:01.038Z,88.51
2016-06-15T07:04:01.447Z,88.56
2016-06-15T07:05:01.122Z,88.27
2016-06-15T07:06:01.297Z,88.65
2016-06-15T07:07:01.206Z,88.37
2016-06-15T07:08:01.240Z,88.31
2016-06-15T07:09:01.415Z,88.51
2016-06-15T07:10:01.668Z,88.6
2016-06-15T07:11:01.702Z,88.51
2016-06-15T07:12:01.534Z,88.41
2016-06-15T07:13:01.958Z,88.98
2016-06-15T07:14:01.494Z,88.79
2016-06-15T07:15:01.574Z,88.7
2016-06-15T07:16:01.562Z,88.31
2016-06-15T07:17:01.612Z,88.02
2016-06-15T07:18:06.021Z,88.31
2016-06-15T07:19:05.790Z,88.51
2016-06-15T07:20:01.730Z,88.6
2016-06-15T07:21:01.780Z,88.31
2016-06-15T07:22:02.175Z,88.41
2016-06-15T07:23:01.864Z,88.51
2016-06-15T07:24:01.914Z,88.7
2016-06-15T07:25:01.948Z,88.6
2016-06-15T07:26:01.984Z,88.98
2016-06-15T07:27:02.017Z,88.79
2016-06-15T07:28:02.068Z,89.08
2016-06-15T07:29:02.118Z,88.12
2016-06-15T07:30:02.152Z,88.31
2016-06-15T07:31:02.202Z,88.7
2016-06-15T07:32:02.236Z,88.02
2016-06-15T07:33:02.317Z,87.64
2016-06-15T07:34:02.320Z,88.22
2016-06-15T07:35:02.354Z,88.6
2016-06-15T07:36:02.389Z,88.22
2016-06-15T07:37:02.329Z,88.6
2016-06-15T07:38:02.473Z,87.93
2016-06-15T07:39:02.523Z,88.51
2016-06-15T07:40:02.557Z,87.64
2016-06-15T07:41:02.639Z,87.45
2016-06-15T07:42:02.642Z,87.16
2016-06-15T07:43:02.691Z,87.16
2016-06-15T07:44:03.164Z,87.16
2016-06-15T07:45:02.823Z,87.64
2016-06-15T07:46:02.810Z,86.58
2016-06-15T07:47:03.063Z,87.07
2016-06-15T07:48:03.160Z,87.74
2016-06-15T07:49:02.944Z,87.07
2016-06-15T07:50:02.979Z,87.35
2016-06-15T07:51:03.513Z,87.55
2016-06-15T07:52:03.828Z,87.16
2016-06-15T07:53:03.129Z,87.84
2016-06-15T07:54:03.147Z,87.74
2016-06-15T07:55:03.790Z,88.6
2016-06-15T07:56:03.216Z,88.31
2016-06-15T07:57:03.266Z,88.79
2016-06-15T07:58:03.300Z,88.51
2016-06-15T07:59:03.365Z,88.55
2016-06-15T08:00:03.385Z,88.65
2016-06-15T08:01:03.419Z,88.26
2016-06-15T08:02:03.469Z,88.45
2016-06-15T08:03:03.503Z,88.45
2016-06-15T08:04:03.553Z,88.35
2016-06-15T08:05:03.587Z,88.93
2016-06-15T08:06:03.653Z,88.74
2016-06-15T08:07:03.782Z,88.74
2016-06-15T08:08:03.721Z,88.74
2016-06-15T08:09:04.194Z,88.55
2016-06-15T08:10:03.822Z,88.35
2016-06-15T08:11:03.855Z,87.98
2016-06-15T08:12:03.875Z,88.26
2016-06-15T08:13:04.267Z,88.55
2016-06-15T08:14:04.006Z,88.26
2016-06-15T08:15:04.337Z,88.35
2016-06-15T08:16:04.059Z,88.93
2016-06-15T08:17:04.094Z,88.17
2016-06-15T08:18:04.127Z,88.74
2016-06-15T08:19:04.177Z,88.65
2016-06-15T08:20:04.211Z,87.88
2016-06-15T08:21:04.292Z,87.78
2016-06-15T08:22:04.156Z,87.78
2016-06-15T08:23:04.376Z,88.93
2016-06-15T08:24:04.412Z,88.65
2016-06-15T08:25:04.430Z,88.65
2016-06-15T08:26:04.527Z,88.55
2016-06-15T08:27:04.514Z,88.65
2016-06-15T08:28:04.752Z,88.35
2016-06-15T08:29:04.583Z,88.65
2016-06-15T08:30:04.898Z,88.26
2016-06-15T08:31:04.698Z,88.17
2016-06-15T08:32:04.717Z,88.74
2016-06-15T08:33:04.768Z,88.84
2016-06-15T08:34:04.785Z,88.55
2016-06-15T08:35:04.852Z,88.65
2016-06-15T08:36:04.886Z,89.12
2016-06-15T08:37:05.514Z,88.59
2016-06-15T08:38:04.955Z,88.55
2016-06-15T08:39:05.035Z,88.31
2016-06-15T08:40:05.054Z,88.49
2016-06-15T08:41:05.089Z,88.69
2016-06-15T08:42:04.732Z,87.73
2016-06-15T08:43:05.173Z,88.02
2016-06-15T08:44:05.207Z,88.79
2016-06-15T08:45:05.257Z,87.63
2016-06-15T08:46:05.355Z,87.54
2016-06-15T08:47:05.341Z,87.63
2016-06-15T08:48:05.392Z,87.54
2016-06-15T08:49:05.425Z,87.44
2016-06-15T08:50:05.459Z,87.63
2016-06-15T08:51:05.510Z,87.73
2016-06-15T08:52:05.840Z,87.44
2016-06-15T08:53:05.594Z,87.54
2016-06-15T08:54:05.628Z,88.02
2016-06-15T08:55:05.663Z,86.96
2016-06-15T08:56:05.713Z,86.77
2016-06-15T08:57:05.763Z,86.38
2016-06-15T08:58:05.797Z,86.77
2016-06-15T08:59:05.878Z,85.85
2016-06-15T09:00:06.178Z,85.71
2016-06-15T09:01:05.931Z,85.57
2016-06-15T09:02:05.966Z,85.91
2016-06-15T09:03:06.047Z,85.66
2016-06-15T09:04:06.160Z,85.37
2016-06-15T09:05:06.194Z,85.18
2016-06-15T09:06:06.134Z,85.18
2016-06-15T09:07:06.903Z,85.24
2016-06-15T09:08:06.531Z,84.99
2016-06-15T09:09:06.363Z,84.31
2016-06-15T09:10:06.709Z,84.12
2016-06-15T09:11:06.399Z,84.12
2016-06-15T09:12:06.513Z,83.64
2016-06-15T09:13:08.193Z,83.26
2016-06-15T09:14:06.731Z,83.16
2016-06-15T09:15:06.545Z,82.01
2016-06-15T09:16:07.705Z,81.82
2016-06-15T09:17:06.599Z,82.49
2016-06-15T09:18:06.681Z,83.36
2016-06-15T09:19:06.699Z,82.68
2016-06-15T09:20:06.717Z,80.96
2016-06-15T09:21:06.784Z,80.66
2016-06-15T09:22:06.958Z,81.92
2016-06-15T09:23:06.852Z,82.49
2016-06-15T09:24:07.917Z,81.34
2016-06-15T09:25:07.780Z,81.43
2016-06-15T09:26:08.079Z,81.72
2016-06-15T09:27:07.021Z,80.86
2016-06-15T09:28:07.071Z,81.82
2016-06-15T09:29:07.152Z,81.72
2016-06-15T09:30:07.227Z,81.24
2016-06-15T09:31:08.293Z,80.24
2016-06-15T09:32:07.250Z,81.4
2016-06-15T09:33:07.612Z,81.4
2016-06-15T09:34:07.661Z,81.4
2016-06-15T09:35:07.618Z,81.59
2016-06-15T09:36:08.293Z,82.84
2016-06-15T09:37:07.889Z,83.22
2016-06-15T09:38:07.704Z,83.41
2016-06-15T09:39:08.785Z,82.4
2016-06-15T09:40:07.930Z,81.43
2016-06-15T09:41:08.714Z,81.68
2016-06-15T09:42:08.280Z,81.87
2016-06-15T09:43:08.330Z,81.68
2016-06-15T09:44:08.317Z,82.35
2016-06-15T09:45:09.024Z,82.78
2016-06-15T09:46:09.089Z,83.74
2016-06-15T09:47:12.857Z,81.72
2016-06-15T09:48:08.313Z,81.92
2016-06-15T09:49:08.317Z,81.63
2016-06-15T09:50:08.007Z,81.43
2016-06-15T09:51:08.292Z,80.09
2016-06-15T09:52:09.498Z,80.28
2016-06-15T09:53:09.095Z,80.66
2016-06-15T09:54:08.816Z,80.38
2016-06-15T09:55:09.351Z,80.42
2016-06-15T09:56:08.276Z,80.38
2016-06-15T09:57:09.029Z,80.19
2016-06-15T09:58:08.391Z,80.51
2016-06-15T09:59:08.426Z,78.84
2016-06-15T10:00:08.507Z,79.13
2016-06-15T10:01:08.478Z,79.17
2016-06-15T10:02:08.513Z,79.17
2016-06-15T10:03:08.687Z,79.94
2016-06-15T10:04:09.006Z,79.79
2016-06-15T10:05:09.002Z,79.3
2016-06-15T10:06:09.858Z,79.21
2016-06-15T10:07:09.168Z,79.02
2016-06-15T10:08:08.975Z,78.63
2016-06-15T10:09:09.116Z,78.83
2016-06-15T10:10:09.946Z,79.02
2016-06-15T10:11:09.509Z,78.67
2016-06-15T10:12:09.386Z,78.38
2016-06-15T10:13:09.326Z,79.05
2016-06-15T10:14:09.324Z,79.25
2016-06-15T10:15:11.082Z,79.53
2016-06-15T10:16:25.855Z,78.33
2016-06-15T10:17:10.630Z,76.44
2016-06-15T10:18:23.075Z,74.26
2016-06-15T10:19:10.973Z,73.68
2016-06-15T10:20:10.150Z,73.78
2016-06-15T10:21:09.733Z,73.97
2016-06-15T10:22:12.535Z,73.58
2016-06-15T10:23:10.915Z,73.88
2016-06-15T10:24:10.700Z,72.68
2016-06-15T10:25:11.267Z,71.47
2016-06-15T10:26:09.911Z,71.47
2016-06-15T10:27:10.648Z,72.81
2016-06-15T10:28:10.542Z,72.11
2016-06-15T10:29:10.327Z,72.72
2016-06-15T10:30:10.330Z,72.43
2016-06-15T10:31:10.833Z,73.3
2016-06-15T10:32:14.400Z,72.75
2016-06-15T10:33:10.169Z,72.69
2016-06-15T10:34:10.969Z,72.02
2016-06-15T10:35:10.644Z,70.48
2016-06-15T10:36:22.585Z,69.35
2016-06-15T10:37:20.636Z,68.59
2016-06-15T10:38:27.216Z,69.23
2016-06-15T10:39:27.094Z,69.13
2016-06-15T10:40:37.270Z,68.74
2016-06-15T10:41:43.757Z,69.32
2016-06-15T10:42:58.151Z,69.03
2016-06-15T10:43:37.372Z,69.32
2016-06-15T10:44:37.407Z,69.71
2016-06-15T10:45:44.691Z,67.94
2016-06-15T10:46:56.320Z,68.8
2016-06-15T10:48:33.684Z,67.55
2016-06-15T10:49:26.673Z,68.93
2016-06-15T10:50:33.285Z,68.93
2016-06-15T10:51:42.460Z,67.14
2016-06-15T10:53:19.982Z,66.14
2016-06-15T10:55:03.266Z,67.3
2016-06-15T10:55:50.566Z,67.94
2016-06-15T10:56:28.537Z,68.42
2016-06-15T10:57:28.915Z,68.52
2016-06-15T10:58:28.622Z,67.65
2016-06-15T10:59:28.704Z,68.13
2016-06-15T11:00:28.707Z,67.94
2016-06-15T11:01:28.757Z,67.26
2016-06-15T11:02:28.806Z,66.52
2016-06-15T11:03:29.075Z,66.72
2016-06-15T11:04:28.984Z,66.14
2016-06-15T11:05:28.940Z,65.11
2016-06-15T11:06:30.007Z,65.4
2016-06-15T11:07:29.056Z,65.5
2016-06-15T11:08:29.074Z,65.01
2016-06-15T11:09:29.125Z,64.18
2016-06-15T11:10:29.174Z,63.98
2016-06-15T11:11:29.225Z,64.28
2016-06-15T11:12:29.572Z,62.54
2016-06-15T11:13:29.465Z,62.63
2016-06-15T11:14:29.342Z,62.44
2016-06-15T11:15:29.393Z,62.15
2016-06-15T11:16:29.474Z,61.09
2016-06-15T11:17:29.493Z,61.47
2016-06-15T11:18:29.528Z,62.25
2016-06-15T11:19:29.577Z,61.38
2016-06-15T11:20:29.644Z,59.93
2016-06-15T11:21:29.678Z,61.38
2016-06-15T11:22:29.571Z,60.35
2016-06-15T11:23:29.949Z,59.6
2016-06-15T11:24:29.812Z,60.09
2016-06-15T11:25:29.861Z,60.38
2016-06-15T11:26:29.912Z,59.53
2016-06-15T11:27:29.993Z,58.8
2016-06-15T11:28:29.995Z,57.98
2016-06-15T11:29:30.046Z,56.36
2016-06-15T11:30:30.096Z,55.13
2016-06-15T11:31:30.192Z,54.58
2016-06-15T11:32:30.195Z,52.54
2016-06-15T11:33:30.276Z,52.06
2016-06-15T11:34:30.295Z,52.8
2016-06-15T11:35:32.408Z,52.51
2016-06-15T11:36:30.458Z,52.03
2016-06-15T11:37:30.429Z,50.45
2016-06-15T11:38:30.573Z,52.29
2016-06-15T11:39:30.544Z,52.56
2016-06-15T11:40:30.579Z,52.75
2016-06-15T11:41:30.645Z,53.72
2016-06-15T11:42:30.679Z,53.31
2016-06-15T11:43:30.729Z,53.41
2016-06-15T11:44:30.810Z,53.86
2016-06-15T11:45:30.829Z,54.63
2016-06-15T11:46:30.880Z,54.53
2016-06-15T11:47:30.976Z,54.63
2016-06-15T11:48:30.994Z,54.35
2016-06-15T11:49:31.045Z,54.44
2016-06-15T11:50:31.078Z,54.05
2016-06-15T11:51:31.551Z,52.99
2016-06-15T11:52:31.210Z,54.15
2016-06-15T11:53:31.213Z,54.35
2016-06-15T11:54:31.248Z,54.63
2016-06-15T11:55:31.390Z,55.41
2016-06-15T11:56:31.363Z,52.99
2016-06-15T11:57:31.413Z,52.53
2016-06-15T11:58:31.463Z,52.24
2016-06-15T11:59:31.529Z,52.22
2016-06-15T12:00:32.047Z,51.56
2016-06-15T12:01:31.598Z,51.81
2016-06-15T12:02:31.648Z,51.54
2016-06-15T12:03:31.729Z,50.79
2016-06-15T12:04:31.732Z,49.85
2016-06-15T12:05:31.781Z,48.22
2016-06-15T12:06:31.832Z,48.35
2016-06-15T12:07:32.412Z,47.98
2016-06-15T12:08:32.431Z,47.23
2016-06-15T12:09:31.997Z,46.18
2016-06-15T12:10:32.031Z,46.47
2016-06-15T12:11:31.347Z,45.42
2016-06-15T12:12:32.162Z,45.86
2016-06-15T12:13:32.493Z,44.79
2016-06-15T12:14:33.122Z,44.62
2016-06-15T12:15:32.297Z,43.76
2016-06-15T12:16:33.533Z,42.1
2016-06-15T12:17:32.411Z,42.32
2016-06-15T12:18:32.447Z,41.05
2016-06-15T12:19:32.528Z,39.69
2016-06-15T12:20:32.562Z,40.35
2016-06-15T12:21:32.487Z,40.72
2016-06-15T12:22:32.817Z,40.13
2016-06-15T12:23:33.430Z,40.19
2016-06-15T12:24:34.230Z,40.47
2016-06-15T12:25:32.827Z,41.73
2016-06-15T12:26:33.361Z,41.73
2016-06-15T12:27:32.927Z,42.02
2016-06-15T12:28:32.977Z,42.6
2016-06-15T12:29:33.028Z,41.06
2016-06-15T12:30:33.077Z,40.48
2016-06-15T12:31:34.721Z,40.68
2016-06-15T12:32:33.176Z,40.66
2016-06-15T12:33:33.242Z,40.73
2016-06-15T12:34:33.277Z,41.1
2016-06-15T12:35:33.421Z,42.15
2016-06-15T12:36:33.407Z,42.79
2016-06-15T12:37:33.583Z,44.13
2016-06-15T12:38:33.476Z,44.71
2016-06-15T12:39:33.526Z,45.48
2016-06-15T12:40:34.030Z,46.36
2016-06-15T12:41:33.642Z,46.55
2016-06-15T12:42:33.676Z,47.13
2016-06-15T12:43:33.788Z,45.39
2016-06-15T12:44:33.808Z,45.21
2016-06-15T12:45:33.827Z,45.7
2016-06-15T12:46:33.876Z,46.41
2016-06-15T12:47:33.973Z,44.75
2016-06-15T12:48:34.256Z,44.68
2016-06-15T12:49:34.495Z,43.92
2016-06-15T12:50:34.076Z,43.54
2016-06-15T12:51:34.173Z,43.15
2016-06-15T12:52:34.191Z,43.63
2016-06-15T12:53:34.272Z,43.44
2016-06-15T12:54:34.292Z,42.95
2016-06-15T12:55:34.325Z,42.18
2016-06-15T12:56:34.453Z,40.81
2016-06-15T12:57:34.425Z,40.81
2016-06-15T12:58:34.523Z,40.23